首页
METAR-TAF:

METAR-TAF

机场 :

赛义德·易卜拉欣王子国际机场

莫洛尼, 葛摩

纬度: 11-32S, 经度: 043-16E, 海拔: 29米

METAR: 丢失

时间: 13:32 (10:32 UTC)

预报

该预报发布于5小时和32分钟前的05:00 UTC
预报有效从21日的 06点(UTC)到 22日的 12点(UTC)
风速13节,风向西南
能见度10公里或以上
少量云层高于2000英尺
成为
从 21日的 16点(UTC)到 21日的 18点(UTC)
风速7节,风向东转东南
成为
从 22日的 05点(UTC)到 22日的 07点(UTC)
风速15节,风向西南

TAF: FMCH 210500Z 2106/2212 22013KT 9999 FEW020 BECMG 2116/2118 12007KT BECMG 2205/2207 22015KT

超过4000个机场的气象观测和天气预报(METAR&TAF报告)。

可查询的气象台以黄色和红色小点在地图上表示。

将鼠标移到小点上方,可查看气象台名称。

然后点击查看天气观测和预报。

如需切换地图:点击带黑十字的绿色按钮放大地图;点击带横线的绿色按钮缩小地图;或者点击绿色箭头查看邻近地区的地图。


METAR-TAF: